Time;durP1;ratioP1;P1;durP2;ratioP2;P2;SDS_P1;SDS_P2;PMS_P1;PMS_P2;Temp;Humidity;BMP_temperature;BMP_pressure;BME280_temperature;BME280_humidity;BME280_pressure;Samples;Min_cycle;Max_cycle;Signal;HPM_P1;HPM_P2
2022/05/20 00:00:15;;;;;;;0.73;0.73;;;;;;;19.55;84.79;96163.12;4364260;32;20189;-63
2022/05/20 00:02:40;;;;;;;1.30;0.73;;;;;;;19.62;83.71;96159.13;4381309;32;20195;-64
2022/05/20 00:05:06;;;;;;;0.90;0.90;;;;;;;19.64;83.67;96163.06;4413021;32;20188;-63
2022/05/20 00:07:32;;;;;;;0.87;0.87;;;;;;;19.56;85.20;96167.41;4380042;32;20252;-63
2022/05/20 00:09:59;;;;;;;0.60;0.60;;;;;;;19.50;84.77;96173.34;4375776;32;20270;-63
2022/05/20 00:12:25;;;;;;;1.00;0.93;;;;;;;19.54;85.75;96176.94;4378572;32;20212;-63
2022/05/20 00:14:51;;;;;;;0.67;0.67;;;;;;;19.49;84.96;96174.44;4370476;32;20184;-63
2022/05/20 00:17:17;;;;;;;8.20;1.20;;;;;;;19.65;84.61;96175.41;4381529;32;20180;-63
2022/05/20 00:19:42;;;;;;;3.90;1.03;;;;;;;19.65;84.11;96175.41;4366587;32;20181;-63
2022/05/20 00:22:11;;;;;;;0.77;0.77;;;;;;;19.62;83.90;96176.06;4380338;32;20184;-64
2022/05/20 00:25:45;;;;;;;0.57;0.57;;;;;;;19.65;84.52;96175.41;4361934;32;20189;-64
2022/05/20 00:27:25;;;;;;;1.13;1.13;;;;;;;19.60;84.34;96172.94;4357954;32;20213;-63
2022/05/20 00:29:50;;;;;;;2.27;0.97;;;;;;;19.64;83.81;96173.06;4361821;32;20169;-64
2022/05/20 00:32:18;;;;;;;0.33;0.33;;;;;;;19.65;83.51;96175.41;4359629;32;20181;-64
2022/05/20 00:34:45;;;;;;;0.50;0.50;;;;;;;19.59;83.97;96171.34;4376231;32;20207;-64
2022/05/20 00:37:11;;;;;;;0.73;0.73;;;;;;;19.58;84.11;96172.47;4368323;32;20206;-67
2022/05/20 00:39:37;;;;;;;0.50;0.50;;;;;;;19.63;83.97;96158.81;4379583;32;20247;-64
2022/05/20 00:42:16;;;;;;;0.77;0.77;;;;;;;19.60;83.49;96156.78;4390344;32;20216;-64
2022/05/20 00:44:42;;;;;;;0.53;0.53;;;;;;;19.58;83.56;96156.31;4374147;32;20188;-64
2022/05/20 00:47:14;;;;;;;1.27;1.27;;;;;;;19.54;83.52;96163.47;4377712;32;20225;-64
2022/05/20 00:49:44;;;;;;;0.70;0.70;;;;;;;19.56;83.09;96156.62;4379292;32;20262;-64
2022/05/20 00:52:14;;;;;;;0.67;0.67;;;;;;;19.54;83.33;96158.09;4380408;32;20234;-64
2022/05/20 00:54:44;;;;;;;0.87;0.87;;;;;;;19.51;83.68;96148.78;4364406;32;20195;-63
2022/05/20 00:57:22;;;;;;;0.80;0.80;;;;;;;19.48;83.35;96141.34;4392552;32;20192;-64
2022/05/20 00:59:56;;;;;;;1.80;1.13;;;;;;;19.49;83.03;96131.34;4362828;32;20275;-64
2022/05/20 01:02:24;;;;;;;1.53;1.43;;;;;;;19.36;83.45;96140.47;4390681;32;20184;-63
2022/05/20 01:05:00;;;;;;;0.83;0.83;;;;;;;19.35;83.89;96138.91;4389236;32;20180;-63
2022/05/20 01:07:28;;;;;;;0.43;0.43;;;;;;;19.31;83.20;96141.47;4372402;32;20223;-63
2022/05/20 01:09:54;;;;;;;0.67;0.67;;;;;;;19.37;83.14;96126.69;4390265;32;20276;-63
2022/05/20 01:12:21;;;;;;;3.17;0.80;;;;;;;19.29;83.31;96129.47;4369050;32;20188;-64
2022/05/20 01:14:49;;;;;;;0.70;0.70;;;;;;;19.33;83.51;96131.16;4342189;32;20204;-63
2022/05/20 01:17:19;;;;;;;0.70;0.70;;;;;;;19.29;83.04;96122.19;4343864;32;20234;-63
2022/05/20 01:19:51;;;;;;;1.50;1.40;;;;;;;19.14;83.40;96112.00;4376376;32;20259;-63
2022/05/20 01:22:54;;;;;;;0.40;0.40;;;;;;;19.17;83.25;96112.13;4374192;32;20184;-63
2022/05/20 01:25:21;;;;;;;0.50;0.50;;;;;;;19.33;83.14;96109.62;4378961;32;20202;-63
2022/05/20 01:27:47;;;;;;;0.57;0.57;;;;;;;19.22;82.30;96103.09;4363654;32;20191;-63
2022/05/20 01:30:17;;;;;;;2.40;0.53;;;;;;;19.23;82.87;96110.03;4365811;32;20193;-64
2022/05/20 01:32:44;;;;;;;0.97;0.97;;;;;;;19.18;82.99;96105.63;4347909;32;20226;-63
2022/05/20 01:35:14;;;;;;;0.50;0.50;;;;;;;19.27;82.86;96110.16;4355108;32;20174;-63
2022/05/20 01:37:39;;;;;;;0.43;0.43;;;;;;;19.13;82.81;96111.19;4337912;32;20200;-64
2022/05/20 01:40:11;;;;;;;0.30;0.30;;;;;;;19.22;82.58;96098.47;4359628;32;20192;-63
2022/05/20 01:43:04;;;;;;;0.83;0.83;;;;;;;19.21;82.29;96101.50;4341073;32;20185;-63
2022/05/20 01:45:49;;;;;;;2.23;1.20;;;;;;;19.16;82.42;96105.16;4371329;32;20301;-63
2022/05/20 01:48:31;;;;;;;0.40;0.40;;;;;;;19.18;82.20;96108.31;4357137;32;20208;-63
2022/05/20 01:50:58;;;;;;;0.10;0.10;;;;;;;19.15;82.02;96103.59;4383195;32;20211;-63
2022/05/20 01:54:08;;;;;;;0.50;0.50;;;;;;;19.12;82.01;96090.78;4365390;32;20184;-63
2022/05/20 01:56:46;;;;;;;0.93;0.77;;;;;;;19.12;81.97;96085.41;4318346;33;20240;-63
2022/05/20 01:59:24;;;;;;;0.83;0.70;;;;;;;19.05;81.81;96087.88;4342776;32;20274;-64
2022/05/20 02:02:00;;;;;;;0.40;0.40;;;;;;;19.13;82.00;96075.44;4388912;32;20188;-64
2022/05/20 02:04:35;;;;;;;0.83;0.83;;;;;;;19.16;82.15;96078.28;4384329;32;20207;-64
2022/05/20 02:07:07;;;;;;;0.83;0.50;;;;;;;19.10;82.34;96074.22;4379021;32;20268;-65
2022/05/20 02:09:47;;;;;;;0.43;0.43;;;;;;;19.10;82.23;96074.22;4377269;32;20207;-64
2022/05/20 02:12:17;;;;;;;0.60;0.60;;;;;;;19.07;82.23;96071.41;4372090;32;20238;-64
2022/05/20 02:14:54;;;;;;;0.70;0.70;;;;;;;19.11;82.01;96056.97;4389118;32;20199;-64
2022/05/20 02:17:28;;;;;;;0.60;0.60;;;;;;;19.09;81.96;96064.59;4383905;32;20191;-64
2022/05/20 02:20:06;;;;;;;0.60;0.60;;;;;;;19.00;81.89;96053.09;4388764;32;20179;-64
2022/05/20 02:22:38;;;;;;;0.50;0.33;;;;;;;19.05;82.40;96055.59;4356044;32;20282;-64
2022/05/20 02:25:09;;;;;;;0.33;0.33;;;;;;;19.00;82.05;96058.47;4354868;32;20189;-64
2022/05/20 02:27:42;;;;;;;0.67;0.67;;;;;;;19.02;82.00;96052.75;4388061;32;20222;-64
2022/05/20 02:30:18;;;;;;;0.87;0.87;;;;;;;19.06;81.92;96056.38;4384074;32;20164;-64
2022/05/20 02:33:10;;;;;;;0.50;0.50;;;;;;;19.00;81.36;96052.31;4375659;32;20270;-63
2022/05/20 02:35:41;;;;;;;0.67;0.67;;;;;;;19.05;81.51;96044.84;4377382;32;20206;-64
2022/05/20 02:38:19;;;;;;;0.53;0.53;;;;;;;19.12;81.79;96045.06;4360383;32;20185;-63
2022/05/20 02:40:48;;;;;;;0.10;0.10;;;;;;;19.10;81.88;96047.31;4367651;32;20204;-63
2022/05/20 02:43:13;;;;;;;0.50;0.50;;;;;;;19.12;81.25;96045.06;4370069;32;20191;-63
2022/05/20 02:45:43;;;;;;;0.40;0.40;;;;;;;19.06;81.73;96049.09;4382095;32;20184;-65
2022/05/20 02:48:09;;;;;;;0.30;0.30;;;;;;;19.02;82.16;96047.38;4371210;32;20180;-64
2022/05/20 02:50:35;;;;;;;0.00;0.00;;;;;;;19.06;82.11;96046.41;4388886;32;20246;-63
2022/05/20 02:53:01;;;;;;;0.40;0.40;;;;;;;19.11;81.52;96051.59;4380980;32;20275;-63
2022/05/20 02:55:27;;;;;;;0.70;0.70;;;;;;;19.14;81.15;96060.87;4339373;32;20216;-64
2022/05/20 02:57:53;;;;;;;1.70;1.03;;;;;;;19.13;81.72;96052.03;4345721;32;20222;-63
2022/05/20 03:05:54;;;;;;;0.50;0.50;;;;;;;18.99;81.75;96046.13;4346116;32;20263;-63
2022/05/20 03:08:20;;;;;;;0.83;0.83;;;;;;;18.97;81.83;96045.69;4366762;32;20189;-63
2022/05/20 03:10:47;;;;;;;0.30;0.30;;;;;;;19.07;81.30;96053.37;4360574;32;20229;-63
2022/05/20 03:13:14;;;;;;;0.40;0.40;;;;;;;18.92;81.49;96053.16;4374272;32;20184;-64
2022/05/20 03:15:41;;;;;;;0.63;0.63;;;;;;;18.98;81.53;96049.94;4370873;32;20191;-65
2022/05/20 03:18:09;;;;;;;0.40;0.40;;;;;;;18.97;81.26;96045.69;4368259;32;20207;-64
2022/05/20 03:20:37;;;;;;;0.57;0.57;;;;;;;19.00;81.99;96046.94;4349495;32;20184;-64
2022/05/20 03:23:04;;;;;;;0.30;0.30;;;;;;;18.95;81.90;96049.81;4375945;32;20193;-64
2022/05/20 03:25:30;;;;;;;0.43;0.43;;;;;;;19.01;81.57;96045.81;4391781;32;20256;-64
2022/05/20 03:27:57;;;;;;;1.50;0.63;;;;;;;18.95;81.82;96044.44;4395684;32;20257;-64
2022/05/20 03:30:22;;;;;;;0.40;0.40;;;;;;;18.95;81.87;96047.13;4377557;32;20203;-64
2022/05/20 03:32:48;;;;;;;0.63;0.63;;;;;;;18.91;81.62;96041.62;4385131;32;20185;-64
2022/05/20 03:35:14;;;;;;;3.53;0.63;;;;;;;18.84;81.57;96039.47;4381201;32;20199;-64
2022/05/20 03:37:40;;;;;;;0.43;0.43;;;;;;;18.81;81.65;96045.50;4391392;32;20195;-65
2022/05/20 03:40:08;;;;;;;1.27;0.93;;;;;;;18.92;81.68;96043.19;4380592;32;20199;-64
2022/05/20 03:42:34;;;;;;;0.37;0.37;;;;;;;18.90;81.58;96048.13;4372278;32;20192;-64
2022/05/20 03:44:59;;;;;;;0.93;0.93;;;;;;;18.93;81.83;96042.06;4388351;32;20180;-64
2022/05/20 03:47:25;;;;;;;0.53;0.53;;;;;;;18.92;81.50;96045.87;4383456;32;20180;-64
2022/05/20 03:49:51;;;;;;;0.30;0.30;;;;;;;18.96;81.20;96041.41;4387999;32;20195;-64
2022/05/20 03:52:17;;;;;;;0.30;0.30;;;;;;;18.93;80.85;96042.06;4373327;32;20218;-64
2022/05/20 03:54:44;;;;;;;0.40;0.40;;;;;;;18.89;81.41;96046.53;4387718;32;20267;-64
2022/05/20 03:57:11;;;;;;;1.20;0.47;;;;;;;18.86;81.38;96049.88;4376024;32;20249;-64
2022/05/20 03:59:38;;;;;;;0.20;0.20;;;;;;;18.75;81.56;96059.44;4355148;32;20242;-64
2022/05/20 04:02:12;;;;;;;0.20;0.20;;;;;;;18.78;81.35;96053.41;4362969;32;20192;-64
2022/05/20 04:04:45;;;;;;;0.63;0.63;;;;;;;18.78;81.10;96045.34;4366420;32;20184;-64
2022/05/20 04:07:21;;;;;;;0.70;0.70;;;;;;;18.78;81.53;96051.50;4381257;32;20255;-64
2022/05/20 04:09:48;;;;;;;0.17;0.17;;;;;;;18.79;81.26;96046.94;4389325;32;20179;-63
2022/05/20 04:12:40;;;;;;;0.50;0.50;;;;;;;18.84;81.25;96054.81;4363792;32;20189;-64
2022/05/20 04:15:11;;;;;;;0.50;0.50;;;;;;;18.83;81.08;96048.62;4384162;32;20180;-64
2022/05/20 04:17:37;;;;;;;0.27;0.27;;;;;;;18.87;80.94;96054.94;4392718;32;20185;-64
2022/05/20 04:20:05;;;;;;;0.10;0.10;;;;;;;18.83;81.35;96050.53;4389531;32;20263;-64
2022/05/20 04:22:33;;;;;;;0.40;0.40;;;;;;;18.99;81.51;96058.78;4367084;32;20268;-64
2022/05/20 04:25:01;;;;;;;0.63;0.50;;;;;;;19.07;81.29;96057.94;4347256;32;20180;-63
2022/05/20 04:27:30;;;;;;;0.67;0.67;;;;;;;19.10;80.57;96058.09;4372277;32;20227;-64
2022/05/20 04:29:57;;;;;;;1.13;0.77;;;;;;;19.14;80.54;96052.81;4376160;32;20172;-64
2022/05/20 04:32:22;;;;;;;0.23;0.23;;;;;;;19.14;80.62;96053.59;4389853;32;20177;-64
2022/05/20 04:34:48;;;;;;;5.00;0.80;;;;;;;19.19;80.81;96061.47;4376963;32;20180;-64
2022/05/20 04:37:16;;;;;;;0.40;0.40;;;;;;;19.02;80.96;96061.63;4360333;32;20192;-63
2022/05/20 04:39:42;;;;;;;1.70;0.93;;;;;;;19.09;80.92;96061.91;4385604;32;20254;-63
2022/05/20 04:47:41;;;;;;;0.70;0.70;;;;;;;19.07;79.97;96066.81;4387315;32;20265;-64
2022/05/20 04:50:07;;;;;;;0.33;0.33;;;;;;;19.04;80.36;96072.06;4391430;32;20308;-64
2022/05/20 04:52:33;;;;;;;0.87;0.67;;;;;;;19.08;80.05;96067.59;4388643;32;20199;-64
2022/05/20 04:55:03;;;;;;;0.60;0.60;;;;;;;19.20;80.72;96071.13;4389092;32;20342;-64
2022/05/20 04:57:46;;;;;;;0.50;0.50;;;;;;;19.30;80.16;96069.16;4389251;32;20189;-64
2022/05/20 05:00:22;;;;;;;2.40;1.00;;;;;;;19.31;79.92;96074.22;4355928;32;20202;-64
2022/05/20 05:02:48;;;;;;;0.47;0.47;;;;;;;19.29;80.38;96081.03;4378938;32;20196;-64
2022/05/20 05:05:18;;;;;;;0.53;0.53;;;;;;;19.35;79.97;96071.62;4379184;32;20176;-63
2022/05/20 05:07:50;;;;;;;1.20;0.67;;;;;;;19.36;79.01;96073.19;4381707;32;20227;-64
2022/05/20 05:10:20;;;;;;;0.40;0.40;;;;;;;19.39;79.89;96077.91;4363084;32;20184;-64
2022/05/20 05:12:45;;;;;;;0.33;0.33;;;;;;;19.38;80.13;96079.03;4369295;32;20180;-64
2022/05/20 05:15:12;;;;;;;1.07;0.80;;;;;;;19.41;79.67;96079.16;4382098;32;20203;-63
2022/05/20 05:20:28;;;;;;;0.53;0.53;;;;;;;19.32;79.74;96078.47;4373611;32;20237;-64
2022/05/20 05:22:56;;;;;;;0.50;0.50;;;;;;;19.39;79.56;96073.31;4385996;32;20189;-64
2022/05/20 05:25:24;;;;;;;0.30;0.30;;;;;;;19.50;79.84;96073.75;4381636;32;20289;-63
2022/05/20 05:27:50;;;;;;;1.63;1.53;;;;;;;19.51;79.62;96075.31;4383138;32;20297;-62
2022/05/20 05:30:16;;;;;;;1.13;0.83;;;;;;;19.54;79.21;96074.63;4376290;32;20196;-63
2022/05/20 05:32:44;;;;;;;6.43;1.17;;;;;;;19.54;79.01;96075.41;4380312;32;20207;-63
2022/05/20 05:35:15;;;;;;;0.67;0.67;;;;;;;19.67;78.81;96072.78;4387294;32;20222;-64
2022/05/20 05:37:42;;;;;;;0.43;0.43;;;;;;;19.69;77.65;96070.53;4385039;32;20184;-63
2022/05/20 05:40:17;;;;;;;0.40;0.40;;;;;;;19.76;78.67;96066.16;4384605;32;20206;-63
2022/05/20 05:42:42;;;;;;;0.97;0.63;;;;;;;19.76;77.90;96074.25;4374634;32;20184;-64
2022/05/20 05:45:09;;;;;;;0.53;0.53;;;;;;;19.81;77.22;96071.34;4382278;32;20199;-63
2022/05/20 05:47:35;;;;;;;0.67;0.67;;;;;;;19.84;77.28;96070.69;4382797;32;20246;-63
2022/05/20 05:50:01;;;;;;;1.53;1.20;;;;;;;19.92;77.29;96062.84;4385193;32;20279;-63
2022/05/20 05:52:26;;;;;;;0.83;0.83;;;;;;;19.92;77.84;96062.84;4392119;32;20265;-63
2022/05/20 05:54:52;;;;;;;0.50;0.50;;;;;;;19.94;78.69;96066.78;4391956;32;20203;-63
2022/05/20 05:57:17;;;;;;;0.63;0.63;;;;;;;20.00;78.34;96068.13;4368270;32;20190;-64
2022/05/20 05:59:42;;;;;;;1.20;1.07;;;;;;;20.00;78.38;96067.34;4365452;32;20195;-64
2022/05/20 06:02:08;;;;;;;0.83;0.83;;;;;;;20.04;78.26;96063.66;4383664;32;20180;-64
2022/05/20 06:04:35;;;;;;;0.60;0.60;;;;;;;20.07;78.02;96062.97;4374991;32;20196;-63
2022/05/20 06:07:05;;;;;;;0.40;0.40;;;;;;;20.13;77.46;96066.25;4383677;32;20185;-63
2022/05/20 06:09:36;;;;;;;0.90;0.90;;;;;;;20.24;78.38;96068.16;4373261;32;20182;-63
2022/05/20 06:12:02;;;;;;;0.70;0.60;;;;;;;20.25;77.44;96068.94;4376220;32;20251;-63
2022/05/20 06:14:28;;;;;;;0.30;0.30;;;;;;;20.32;77.23;96068.37;4360639;32;20184;-63
2022/05/20 06:16:55;;;;;;;0.53;0.53;;;;;;;20.41;75.76;96067.16;4383607;32;20197;-63
2022/05/20 06:19:21;;;;;;;2.10;2.00;;;;;;;20.53;77.43;96072.56;4371557;32;20294;-64
2022/05/20 06:21:46;;;;;;;2.07;1.93;;;;;;;20.57;76.21;96070.00;4363321;32;20228;-64
2022/05/20 06:24:12;;;;;;;3.73;1.63;;;;;;;20.64;75.57;96072.88;4379379;32;20199;-64
2022/05/20 06:26:38;;;;;;;1.30;1.30;;;;;;;20.65;76.38;96073.66;4393402;32;20206;-64
2022/05/20 06:29:05;;;;;;;1.63;1.53;;;;;;;20.75;75.60;96075.91;4376887;32;20184;-64
2022/05/20 06:31:31;;;;;;;0.90;0.90;;;;;;;20.82;75.78;96076.09;4363526;32;20231;-65
2022/05/20 06:33:58;;;;;;;0.63;0.63;;;;;;;20.86;74.84;96083.19;4365202;32;20236;-65
2022/05/20 06:41:54;;;;;;;1.23;0.90;;;;;;;21.09;72.57;96074.59;4354905;32;20195;-65
2022/05/20 06:44:21;;;;;;;1.17;1.00;;;;;;;21.12;72.21;96072.00;4331037;32;20182;-65
2022/05/20 06:46:46;;;;;;;1.30;1.20;;;;;;;21.11;71.23;96067.72;4374004;32;20269;-65
2022/05/20 06:49:12;;;;;;;3.07;0.93;;;;;;;21.19;71.56;96072.22;4395353;32;20203;-65
2022/05/20 06:51:39;;;;;;;0.80;0.80;;;;;;;21.25;71.28;96065.47;4385605;32;20221;-65
2022/05/20 06:54:11;;;;;;;1.07;1.07;;;;;;;21.22;69.62;96070.75;4388333;32;20195;-65
2022/05/20 06:56:48;;;;;;;1.20;1.20;;;;;;;21.30;68.99;96077.16;4386449;32;20207;-65
2022/05/20 06:59:13;;;;;;;1.03;1.03;;;;;;;21.39;69.35;96077.78;4370240;32;20194;-66
2022/05/20 07:01:42;;;;;;;0.77;0.77;;;;;;;21.55;69.50;96075.91;4404614;32;20236;-65
2022/05/20 07:04:08;;;;;;;0.60;0.60;;;;;;;21.59;69.62;96077.59;4392871;32;20185;-65
2022/05/20 07:06:35;;;;;;;0.50;0.50;;;;;;;21.65;71.47;96072.72;4376958;32;20235;-65
2022/05/20 07:09:03;;;;;;;5.40;1.10;;;;;;;21.67;66.96;96073.16;4387356;32;20188;-66
2022/05/20 07:11:29;;;;;;;0.70;0.70;;;;;;;21.76;69.07;96070.31;4371104;32;20310;-66
2022/05/20 07:13:56;;;;;;;0.63;0.63;;;;;;;21.85;67.29;96062.81;4372306;32;20211;-66
2022/05/20 07:16:26;;;;;;;0.40;0.40;;;;;;;21.79;66.18;96056.88;4373265;32;20207;-66
2022/05/20 07:18:52;;;;;;;0.50;0.50;;;;;;;21.93;66.21;96059.94;4383234;32;20188;-66
2022/05/20 07:21:17;;;;;;;0.90;0.90;;;;;;;21.97;66.50;96060.03;4390576;32;20272;-65
2022/05/20 07:23:45;;;;;;;1.43;1.33;;;;;;;22.11;64.60;96059.63;4384690;32;20184;-66
2022/05/20 07:26:13;;;;;;;1.23;1.17;;;;;;;22.16;65.99;96051.25;4383099;32;20267;-65
2022/05/20 07:28:40;;;;;;;0.50;0.50;;;;;;;22.24;65.51;96053.00;4385696;32;20176;-66
2022/05/20 07:31:08;;;;;;;0.57;0.57;;;;;;;22.34;64.63;96057.88;4400381;32;20184;-66
2022/05/20 07:33:37;;;;;;;1.03;1.03;;;;;;;22.37;65.02;96054.47;4387273;32;20181;-65
2022/05/20 07:36:06;;;;;;;3.00;2.13;;;;;;;22.47;63.65;96050.44;4368295;32;20189;-65
2022/05/20 07:38:32;;;;;;;1.37;1.37;;;;;;;22.53;63.70;96054.44;4388004;32;20202;-65
2022/05/20 07:41:00;;;;;;;1.47;1.33;;;;;;;22.58;64.30;96048.78;4381396;32;20184;-65
2022/05/20 07:43:29;;;;;;;0.90;0.90;;;;;;;22.66;63.75;96047.78;4380696;32;20204;-65
2022/05/20 07:45:56;;;;;;;0.30;0.30;;;;;;;22.71;63.62;96047.50;4376719;32;20188;-66
2022/05/20 07:48:22;;;;;;;0.57;0.57;;;;;;;22.80;63.05;96044.66;4348829;32;20182;-65
2022/05/20 07:50:57;;;;;;;0.77;0.77;;;;;;;22.82;63.25;96051.28;4333456;32;20261;-66
2022/05/20 07:53:37;;;;;;;0.47;0.47;;;;;;;22.83;63.16;96049.38;4369940;32;20187;-65
2022/05/20 07:56:24;;;;;;;0.87;0.70;;;;;;;22.95;62.30;96055.41;4388623;32;20249;-65
2022/05/20 07:58:57;;;;;;;0.83;0.60;;;;;;;23.02;61.84;96049.38;4362741;32;20196;-65
2022/05/20 08:01:32;;;;;;;0.90;0.90;;;;;;;23.08;60.56;96050.66;4367636;32;20198;-65
2022/05/20 08:06:51;;;;;;;0.43;0.43;;;;;;;23.22;60.56;96044.75;4374058;32;20194;-65
2022/05/20 08:09:17;;;;;;;2.23;0.80;;;;;;;23.22;59.09;96050.97;4380647;32;20235;-65
2022/05/20 08:11:49;;;;;;;0.43;0.43;;;;;;;23.23;60.04;96039.00;4376278;32;20226;-65
2022/05/20 08:14:16;;;;;;;4.60;0.90;;;;;;;23.28;59.38;96044.09;4389495;32;20203;-66
2022/05/20 08:16:41;;;;;;;0.47;0.47;;;;;;;23.26;59.02;96038.28;4365760;32;20189;-65
2022/05/20 08:19:06;;;;;;;0.50;0.50;;;;;;;23.35;59.08;96037.25;4381584;32;20281;-65
2022/05/20 08:21:34;;;;;;;0.50;0.50;;;;;;;23.36;57.81;96036.13;4367437;32;20177;-66
2022/05/20 08:23:59;;;;;;;1.50;0.50;;;;;;;23.39;57.72;96036.19;4379301;32;20306;-65
2022/05/20 08:26:24;;;;;;;0.20;0.20;;;;;;;23.38;57.26;96031.13;4378743;32;20193;-66
2022/05/20 08:28:51;;;;;;;2.53;0.87;;;;;;;23.50;54.97;96041.81;4370350;32;20218;-65
2022/05/20 08:31:17;;;;;;;0.60;0.60;;;;;;;23.55;55.74;96033.41;4354893;32;20305;-66
2022/05/20 08:33:43;;;;;;;1.20;0.90;;;;;;;23.60;54.97;96025.00;4367699;32;20192;-66
2022/05/20 08:36:11;;;;;;;1.10;1.10;;;;;;;23.72;53.72;96026.75;4365551;32;20185;-66
2022/05/20 08:38:36;;;;;;;0.80;0.80;;;;;;;23.77;54.40;96024.53;4390511;32;20184;-65
2022/05/20 08:41:04;;;;;;;0.80;0.80;;;;;;;23.86;55.67;96016.97;4354621;32;20203;-66
2022/05/20 08:43:33;;;;;;;0.77;0.77;;;;;;;23.91;54.73;96013.13;4368905;32;20279;-66
2022/05/20 08:46:01;;;;;;;1.40;1.30;;;;;;;23.90;55.08;96004.22;4406011;32;22005;-65
2022/05/20 08:48:28;;;;;;;1.27;1.23;;;;;;;23.98;55.45;96003.22;4340038;32;20250;-66
2022/05/20 08:50:55;;;;;;;0.23;0.23;;;;;;;24.01;55.65;96007.13;4346491;32;20185;-65
2022/05/20 08:53:42;;;;;;;1.70;1.37;;;;;;;24.08;55.48;96001.03;4369856;32;20283;-66
2022/05/20 08:56:12;;;;;;;0.80;0.80;;;;;;;24.08;55.64;95995.62;4379793;32;20169;-65
2022/05/20 08:58:45;;;;;;;0.87;0.87;;;;;;;24.10;55.98;95996.03;4355233;32;20184;-65
2022/05/20 09:01:10;;;;;;;5.67;0.73;;;;;;;24.14;55.80;95994.94;4362180;32;20184;-65
2022/05/20 09:03:35;;;;;;;0.90;0.90;;;;;;;24.15;56.15;95995.72;4396797;32;20226;-65
2022/05/20 09:06:13;;;;;;;1.07;1.07;;;;;;;24.20;56.00;95996.19;4380490;32;20202;-64
2022/05/20 09:08:39;;;;;;;1.10;1.10;;;;;;;24.25;57.28;95992.44;4363858;32;20183;-65
2022/05/20 09:11:12;;;;;;;0.93;0.80;;;;;;;24.28;56.37;95987.06;4335023;32;20215;-64
2022/05/20 09:16:25;;;;;;;0.27;0.27;;;;;;;24.37;55.31;95992.22;4380982;32;20213;-65
2022/05/20 09:19:23;;;;;;;1.00;1.00;;;;;;;24.42;55.11;95989.19;4377245;32;20196;-64
2022/05/20 09:22:02;;;;;;;1.83;1.03;;;;;;;24.45;55.13;95983.03;4387842;32;20196;-65
2022/05/20 09:24:41;;;;;;;0.87;0.87;;;;;;;24.51;54.49;95978.88;4363568;32;20258;-65
2022/05/20 09:27:25;;;;;;;0.50;0.50;;;;;;;24.53;54.60;95976.53;4344919;32;20192;-64
2022/05/20 09:30:14;;;;;;;1.20;1.10;;;;;;;24.62;54.14;95974.34;4353153;32;20196;-64
2022/05/20 09:33:01;;;;;;;2.10;0.90;;;;;;;24.70;54.35;95972.53;4355740;32;20189;-65
2022/05/20 09:35:33;;;;;;;0.70;0.70;;;;;;;24.69;54.93;95975.59;4367729;32;20196;-62
2022/05/20 09:38:16;;;;;;;0.47;0.47;;;;;;;24.69;54.24;95962.81;4379812;32;20256;-64
2022/05/20 09:40:51;;;;;;;0.80;0.80;;;;;;;24.80;53.41;95968.37;4385755;32;20196;-63
2022/05/20 09:43:28;;;;;;;1.53;1.27;;;;;;;24.88;53.17;95962.66;4394444;32;20191;-63
2022/05/20 09:45:59;;;;;;;1.23;1.23;;;;;;;25.03;52.10;95958.22;4387615;32;20217;-63
2022/05/20 09:48:49;;;;;;;0.33;0.33;;;;;;;25.16;51.14;95956.78;4376108;32;20200;-63
2022/05/20 09:51:32;;;;;;;1.47;1.33;;;;;;;25.14;51.67;95950.97;4392468;32;20207;-63
2022/05/20 09:54:29;;;;;;;0.60;0.60;;;;;;;25.33;49.50;95950.78;4356296;32;20219;-63
2022/05/20 09:57:14;;;;;;;0.73;0.73;;;;;;;25.48;49.86;95938.13;4384024;32;20197;-64
2022/05/20 10:00:21;;;;;;;0.50;0.50;;;;;;;25.56;47.54;95930.81;4388076;32;20196;-63
2022/05/20 10:03:28;;;;;;;0.50;0.50;;;;;;;25.57;48.06;95932.34;4338153;32;20266;-61
2022/05/20 10:06:15;;;;;;;0.70;0.70;;;;;;;25.61;47.09;95928.53;4386235;32;20237;-62
2022/05/20 10:08:48;;;;;;;1.03;0.93;;;;;;;25.61;46.80;95925.81;4360880;32;20196;-63
2022/05/20 10:11:20;;;;;;;0.70;0.70;;;;;;;25.61;46.05;95922.31;4371862;32;20224;-63
2022/05/20 10:13:55;;;;;;;0.63;0.63;;;;;;;25.77;45.93;95917.44;4377898;32;20239;-61
2022/05/20 10:16:54;;;;;;;0.73;0.73;;;;;;;25.83;47.02;95917.84;4353618;32;20211;-63
2022/05/20 10:19:52;;;;;;;0.97;0.97;;;;;;;25.88;46.42;95918.28;4375040;32;20185;-62
2022/05/20 10:22:43;;;;;;;0.80;0.80;;;;;;;25.84;46.00;95914.75;4374732;32;20307;-63
2022/05/20 10:25:17;;;;;;;0.63;0.63;;;;;;;25.87;47.23;95907.78;4353783;32;20252;-63
2022/05/20 10:32:33;;;;;;;1.00;0.63;;;;;;;25.94;45.90;95908.63;4353370;32;20192;-66
2022/05/20 10:33:48;;;;;;;6.60;1.80;;;;;;;26.09;44.76;95897.84;4369152;32;20297;-64
2022/05/20 10:36:28;;;;;;;1.80;1.70;;;;;;;26.17;44.98;95900.25;4371994;32;20195;-65
2022/05/20 10:39:17;;;;;;;0.97;0.93;;;;;;;26.20;45.55;95893.22;4345413;32;20211;-62
2022/05/20 10:42:35;;;;;;;0.77;0.77;;;;;;;26.25;44.58;95890.16;4339834;32;20220;-65
2022/05/20 10:48:53;;;;;;;0.50;0.50;;;;;;;26.29;45.20;95883.63;4337630;32;20260;-62
2022/05/20 10:54:55;;;;;;;0.83;0.83;;;;;;;26.21;45.44;95878.47;4378936;32;20219;-63
2022/05/20 10:58:04;;;;;;;0.60;0.60;;;;;;;26.23;45.81;95868.00;4378609;32;20200;-62
2022/05/20 11:00:50;;;;;;;0.60;0.60;;;;;;;26.32;44.34;95868.47;4304740;32;20404;-62
2022/05/20 11:03:57;;;;;;;1.80;1.15;;;;;;;26.41;44.33;95859.94;4355154;32;20059;-62
2022/05/20 11:07:14;;;;;;;1.30;1.23;;;;;;;26.56;43.57;95848.75;4352697;32;20262;-62
2022/05/20 11:10:11;;;;;;;1.90;0.80;;;;;;;26.58;44.46;95848.38;4365990;32;20196;-65
2022/05/20 11:13:22;;;;;;;1.23;1.13;;;;;;;26.57;44.25;95847.59;4336236;32;20192;-66
2022/05/20 11:16:15;;;;;;;1.20;1.20;;;;;;;26.51;44.66;95851.06;4385690;32;20192;-66
2022/05/20 11:19:21;;;;;;;2.47;0.70;;;;;;;26.41;45.30;95852.56;4374917;32;20283;-66
2022/05/20 11:22:08;;;;;;;0.70;0.70;;;;;;;26.37;44.76;95849.06;4376068;32;20206;-67
2022/05/20 11:24:39;;;;;;;0.67;0.67;;;;;;;26.48;44.80;95832.75;4389232;32;20187;-67
2022/05/20 11:27:23;;;;;;;0.60;0.60;;;;;;;26.39;44.14;95832.34;4385545;32;20246;-66
2022/05/20 11:30:22;;;;;;;0.70;0.70;;;;;;;26.37;44.93;95823.78;4397851;32;20265;-67
2022/05/20 11:33:26;;;;;;;1.00;1.00;;;;;;;26.46;44.00;95829.66;4327366;32;20194;-66
2022/05/20 11:36:35;;;;;;;3.23;3.10;;;;;;;26.48;44.80;95825.38;4330741;32;20200;-66
2022/05/20 11:39:26;;;;;;;1.27;1.27;;;;;;;26.32;44.94;95824.94;4347568;32;20283;-66
2022/05/20 11:42:22;;;;;;;0.47;0.47;;;;;;;26.21;45.03;95818.63;4379329;32;20219;-66
2022/05/20 11:45:10;;;;;;;0.77;0.77;;;;;;;26.13;43.56;95814.31;4384839;32;20220;-66
2022/05/20 11:47:50;;;;;;;1.47;0.97;;;;;;;26.11;44.86;95808.47;4382776;32;20261;-66
2022/05/20 11:50:43;;;;;;;1.13;1.13;;;;;;;26.18;44.41;95805.81;4380976;32;20196;-66
2022/05/20 11:53:19;;;;;;;0.83;0.83;;;;;;;26.22;44.69;95809.28;4383755;32;20192;-66
2022/05/20 11:55:58;;;;;;;0.67;0.67;;;;;;;26.28;44.04;95802.34;4373848;32;20196;-66
2022/05/20 11:59:00;;;;;;;0.83;0.83;;;;;;;26.44;43.56;95800.09;4371259;32;20196;-66
2022/05/20 12:01:29;;;;;;;2.00;1.10;;;;;;;26.52;43.31;95798.97;4348215;32;20188;-67
2022/05/20 12:04:11;;;;;;;1.10;0.83;;;;;;;26.52;44.01;95801.69;4383884;32;20314;-67
2022/05/20 12:07:20;;;;;;;0.60;0.60;;;;;;;26.45;44.62;95796.19;4375103;32;20180;-67
2022/05/20 12:09:57;;;;;;;0.87;0.87;;;;;;;26.45;43.37;95777.16;4359978;32;20218;-68
2022/05/20 12:12:33;;;;;;;1.40;1.30;;;;;;;26.41;44.62;95779.06;4314588;32;20247;-67
2022/05/20 12:15:41;;;;;;;0.90;0.77;;;;;;;26.34;44.38;95773.63;4387961;32;20254;-67
2022/05/20 12:24:41;;;;;;;1.27;1.27;;;;;;;26.23;45.28;95759.16;4377785;32;20230;-67
2022/05/20 12:27:43;;;;;;;1.77;1.57;;;;;;;26.17;45.67;95760.72;4357596;32;20207;-67
2022/05/20 12:30:40;;;;;;;1.00;1.00;;;;;;;26.30;44.99;95757.28;4372600;32;20241;-61
2022/05/20 12:33:26;;;;;;;0.80;0.80;;;;;;;26.37;45.53;95756.53;4348602;32;20196;-62
2022/05/20 12:36:14;;;;;;;0.90;0.90;;;;;;;26.61;44.57;95750.34;4365832;32;20248;-63
2022/05/20 12:38:39;;;;;;;1.37;0.70;;;;;;;26.72;42.55;95744.94;4364840;32;20202;-62
2022/05/20 12:41:18;;;;;;;0.57;0.57;;;;;;;26.75;42.36;95737.94;4373685;32;20184;-62
2022/05/20 12:43:48;;;;;;;0.40;0.40;;;;;;;26.80;42.43;95734.84;4392131;32;20191;-66
2022/05/20 12:46:30;;;;;;;0.57;0.57;;;;;;;26.80;43.60;95724.72;4335495;32;20192;-67